createdAt,value
2017-03-23T06:47:35.724Z,220
2017-03-23T06:48:44.522Z,216
2017-03-23T06:49:51.167Z,216
2017-03-23T06:51:00.811Z,216
2017-03-23T06:52:07.858Z,212
2017-03-23T08:22:10.494Z,248
2017-03-23T10:27:03.830Z,248
2017-03-23T10:29:24.246Z,2616
2017-03-23T10:30:25.765Z,6836
2017-03-23T10:31:27.308Z,6816
2017-03-23T10:32:28.921Z,6884
2017-03-23T10:33:30.845Z,6740
2017-03-23T10:34:32.509Z,6560
2017-03-23T10:35:34.237Z,6480
2017-03-23T10:36:35.904Z,6464
2017-03-23T10:37:37.676Z,6304
2017-03-23T10:38:39.376Z,6276
2017-03-23T10:39:41.215Z,6272
2017-03-23T10:40:42.921Z,6228
2017-03-23T10:41:44.723Z,6220
2017-03-23T10:42:46.525Z,6088
2017-03-23T10:43:48.455Z,6124
2017-03-23T10:44:50.198Z,6040
2017-03-23T10:45:52.020Z,6008
2017-03-23T10:46:53.892Z,5816
2017-03-23T10:47:55.646Z,5696
2017-03-23T10:48:57.460Z,5520
2017-03-23T10:49:59.177Z,5640
2017-03-23T10:51:00.800Z,5596
2017-03-23T10:52:02.604Z,5676
2017-03-23T10:53:04.304Z,5644
2017-03-23T10:54:06.071Z,5676
2017-03-23T10:55:07.774Z,5604
2017-03-23T10:56:09.424Z,5628
2017-03-23T10:57:11.152Z,5616
2017-03-23T10:58:13.003Z,5632
2017-03-23T10:59:14.786Z,5604
2017-03-23T11:00:16.506Z,5628
2017-03-23T11:01:18.229Z,5620
2017-03-23T11:02:20.161Z,5616
2017-03-23T11:03:21.978Z,5624
2017-03-23T11:04:23.689Z,5620
2017-03-23T11:05:25.554Z,5636
2017-03-23T11:06:27.345Z,5620
2017-03-23T11:07:29.052Z,5616
2017-03-23T11:08:30.793Z,5640
2017-03-23T11:09:32.620Z,5640
2017-03-23T11:10:34.403Z,5648
2017-03-23T11:11:36.182Z,5644
2017-03-23T11:12:37.823Z,5636
2017-03-23T11:13:40.229Z,5644
2017-03-23T11:14:41.869Z,5680
2017-03-23T11:15:43.639Z,5652
2017-03-23T11:16:45.453Z,5660
2017-03-23T11:17:47.189Z,5660
2017-03-23T11:18:48.978Z,5652
2017-03-23T11:19:50.947Z,5644
2017-03-23T11:20:52.722Z,5640
2017-03-23T11:21:54.548Z,5648
2017-03-23T11:22:56.360Z,5664
2017-03-23T11:23:57.998Z,5656
2017-03-23T11:24:59.723Z,5632
2017-03-23T11:26:01.499Z,5612
2017-03-23T11:27:03.156Z,5624
2017-03-23T11:28:04.909Z,5620
2017-03-23T11:29:06.624Z,5568
2017-03-23T11:30:08.479Z,5492
2017-03-23T11:31:10.218Z,5600
2017-03-23T11:32:11.956Z,5640
2017-03-23T11:33:13.635Z,5512
2017-03-23T11:34:15.378Z,5616
2017-03-23T11:35:17.145Z,5572
2017-03-23T11:36:18.816Z,5636
2017-03-23T11:37:20.542Z,5660
2017-03-23T11:38:22.389Z,5668
2017-03-23T11:39:24.094Z,5648
2017-03-23T11:40:25.864Z,5664
2017-03-23T11:41:27.525Z,5656
2017-03-23T11:42:29.189Z,5628
2017-03-23T11:43:30.947Z,5664
2017-03-23T11:44:32.578Z,5676
2017-03-23T11:45:34.431Z,5676
2017-03-23T11:46:36.269Z,5680
2017-03-23T11:47:37.902Z,5684
2017-03-23T11:48:39.619Z,5692
2017-03-23T11:49:41.317Z,5708
2017-03-23T11:50:42.941Z,5704
2017-03-23T11:51:44.649Z,5704
2017-03-23T11:52:46.285Z,5700
2017-03-23T11:53:48.044Z,5700
2017-03-23T11:54:49.677Z,5708
2017-03-23T11:55:51.383Z,5708
2017-03-23T11:56:53.063Z,5712
2017-03-23T11:57:54.846Z,5724
2017-03-23T11:58:56.538Z,5732
2017-03-23T11:59:58.201Z,5740
2017-03-23T12:00:59.987Z,5948
2017-03-23T12:02:01.753Z,5756
2017-03-23T12:03:03.463Z,5772
2017-03-23T12:04:05.209Z,5744
2017-03-23T12:05:06.955Z,5708
2017-03-23T12:06:08.650Z,5796
2017-03-23T12:07:10.486Z,5676
2017-03-23T12:08:12.185Z,5704
2017-03-23T12:09:13.995Z,5644
2017-03-23T12:10:15.765Z,5684
2017-03-23T12:11:17.579Z,5816
2017-03-23T12:12:19.259Z,5596
2017-03-23T12:13:21.113Z,5700
2017-03-23T12:14:22.727Z,5684
2017-03-23T12:15:24.591Z,5596
2017-03-23T12:16:26.440Z,5632
2017-03-23T12:17:28.351Z,5736
2017-03-23T12:18:30.215Z,5632
2017-03-23T12:19:31.931Z,5640
2017-03-23T12:20:33.690Z,5664
2017-03-23T12:21:35.522Z,5668
2017-03-23T12:22:37.330Z,5692
2017-03-23T12:23:39.050Z,5748
2017-03-23T12:24:40.898Z,5708
2017-03-23T12:25:42.696Z,5752
2017-03-23T12:26:44.427Z,5568
2017-03-23T12:27:46.158Z,5760
2017-03-23T12:28:47.867Z,5780
2017-03-23T12:29:49.582Z,5760
2017-03-23T12:30:51.230Z,5764
2017-03-23T12:31:53.049Z,5712
